sensor_id;sensor_type;location;lat;lon;timestamp;P1;P2;P0
86103;PMS3003;76727;51.216;17.394;2024-02-26T00:00:59;37.00;33.00;20.33
86103;PMS3003;76727;51.216;17.394;2024-02-26T00:04:21;51.33;39.67;22.00
86103;PMS3003;76727;51.216;17.394;2024-02-26T00:07:23;52.67;33.33;20.33
86103;PMS3003;76727;51.216;17.394;2024-02-26T00:10:24;45.50;30.00;18.00
86103;PMS3003;76727;51.216;17.394;2024-02-26T00:13:27;48.00;33.00;18.67
86103;PMS3003;76727;51.216;17.394;2024-02-26T00:16:29;25.00;22.00;15.00
86103;PMS3003;76727;51.216;17.394;2024-02-26T00:19:31;31.00;22.67;16.00
86103;PMS3003;76727;51.216;17.394;2024-02-26T00:22:36;37.33;26.33;14.33
86103;PMS3003;76727;51.216;17.394;2024-02-26T00:25:40;35.33;29.67;19.00
86103;PMS3003;76727;51.216;17.394;2024-02-26T00:28:45;39.25;30.00;18.75
86103;PMS3003;76727;51.216;17.394;2024-02-26T00:31:47;38.67;25.67;16.00
86103;PMS3003;76727;51.216;17.394;2024-02-26T00:34:49;31.67;28.00;18.00
86103;PMS3003;76727;51.216;17.394;2024-02-26T00:37:51;36.67;28.67;16.67
86103;PMS3003;76727;51.216;17.394;2024-02-26T00:40:53;39.67;30.00;15.33
86103;PMS3003;76727;51.216;17.394;2024-02-26T00:43:56;40.80;27.80;16.40
86103;PMS3003;76727;51.216;17.394;2024-02-26T00:47:00;23.50;21.00;13.00
86103;PMS3003;76727;51.216;17.394;2024-02-26T00:50:02;34.67;29.33;16.00
86103;PMS3003;76727;51.216;17.394;2024-02-26T00:53:03;27.50;24.00;16.00
86103;PMS3003;76727;51.216;17.394;2024-02-26T00:56:05;30.33;25.67;15.00
86103;PMS3003;76727;51.216;17.394;2024-02-26T00:59:09;32.33;27.00;16.00
86103;PMS3003;76727;51.216;17.394;2024-02-26T01:02:11;29.00;23.67;15.00
86103;PMS3003;76727;51.216;17.394;2024-02-26T01:05:15;30.14;22.43;14.43
86103;PMS3003;76727;51.216;17.394;2024-02-26T01:08:17;33.00;28.00;15.00
86103;PMS3003;76727;51.216;17.394;2024-02-26T01:11:19;30.67;27.00;16.00
86103;PMS3003;76727;51.216;17.394;2024-02-26T03:25:46;21.00;13.00;5.00
86103;PMS3003;76727;51.216;17.394;2024-02-26T03:28:48;22.67;18.00;9.67
86103;PMS3003;76727;51.216;17.394;2024-02-26T03:31:52;14.67;13.67;7.00
86103;PMS3003;76727;51.216;17.394;2024-02-26T03:34:53;32.00;16.50;8.00
86103;PMS3003;76727;51.216;17.394;2024-02-26T03:37:55;31.00;21.67;11.33
86103;PMS3003;76727;51.216;17.394;2024-02-26T03:40:57;16.00;12.00;6.00
86103;PMS3003;76727;51.216;17.394;2024-02-26T03:43:58;21.50;12.50;4.00
86103;PMS3003;76727;51.216;17.394;2024-02-26T03:47:00;25.00;18.00;12.67
86103;PMS3003;76727;51.216;17.394;2024-02-26T03:50:04;24.33;21.83;11.67
86103;PMS3003;76727;51.216;17.394;2024-02-26T03:53:07;32.33;21.00;12.00
86103;PMS3003;76727;51.216;17.394;2024-02-26T03:56:12;24.80;14.60;9.00
86103;PMS3003;76727;51.216;17.394;2024-02-26T03:59:13;22.00;13.00;7.00
86103;PMS3003;76727;51.216;17.394;2024-02-26T04:02:15;30.67;20.33;13.00
86103;PMS3003;76727;51.216;17.394;2024-02-26T04:05:18;33.33;25.00;15.33
86103;PMS3003;76727;51.216;17.394;2024-02-26T04:08:19;24.00;19.00;12.00
86103;PMS3003;76727;51.216;17.394;2024-02-26T04:11:23;23.00;20.33;13.67
86103;PMS3003;76727;51.216;17.394;2024-02-26T04:14:25;38.00;25.00;12.00
86103;PMS3003;76727;51.216;17.394;2024-02-26T04:17:27;29.67;19.67;11.33
86103;PMS3003;76727;51.216;17.394;2024-02-26T04:20:29;28.67;21.00;11.33
86103;PMS3003;76727;51.216;17.394;2024-02-26T04:23:32;21.17;14.17;11.00
86103;PMS3003;76727;51.216;17.394;2024-02-26T04:26:36;22.33;19.00;12.00
86103;PMS3003;76727;51.216;17.394;2024-02-26T04:29:38;35.33;19.00;12.00
86103;PMS3003;76727;51.216;17.394;2024-02-26T04:32:40;26.67;21.67;13.00
86103;PMS3003;76727;51.216;17.394;2024-02-26T04:35:43;27.00;21.33;12.00
86103;PMS3003;76727;51.216;17.394;2024-02-26T04:38:45;30.67;24.67;13.00
86103;PMS3003;76727;51.216;17.394;2024-02-26T04:41:48;36.67;25.00;15.67
86103;PMS3003;76727;51.216;17.394;2024-02-26T04:44:50;31.33;21.67;12.00
86103;PMS3003;76727;51.216;17.394;2024-02-26T04:47:52;24.00;21.00;11.33
86103;PMS3003;76727;51.216;17.394;2024-02-26T04:50:54;28.67;22.33;12.67
86103;PMS3003;76727;51.216;17.394;2024-02-26T04:53:57;30.33;24.67;13.00
86103;PMS3003;76727;51.216;17.394;2024-02-26T04:57:00;29.33;25.33;15.67
86103;PMS3003;76727;51.216;17.394;2024-02-26T05:00:04;23.33;20.17;10.00
86103;PMS3003;76727;51.216;17.394;2024-02-26T05:03:06;26.67;23.33;13.00
86103;PMS3003;76727;51.216;17.394;2024-02-26T05:06:09;31.33;26.33;15.00
86103;PMS3003;76727;51.216;17.394;2024-02-26T05:09:11;35.33;25.33;13.00
86103;PMS3003;76727;51.216;17.394;2024-02-26T05:12:15;17.40;12.60;8.60
86103;PMS3003;76727;51.216;17.394;2024-02-26T05:15:17;38.00;28.00;16.00
86103;PMS3003;76727;51.216;17.394;2024-02-26T05:18:19;25.67;18.33;12.00
86103;PMS3003;76727;51.216;17.394;2024-02-26T05:21:21;20.33;19.67;12.00
86103;PMS3003;76727;51.216;17.394;2024-02-26T05:24:23;31.00;19.67;10.00
86103;PMS3003;76727;51.216;17.394;2024-02-26T05:27:26;36.20;29.20;15.40
86103;PMS3003;76727;51.216;17.394;2024-02-26T05:30:28;37.67;24.67;15.00
86103;PMS3003;76727;51.216;17.394;2024-02-26T05:33:31;49.67;34.67;18.00
86103;PMS3003;76727;51.216;17.394;2024-02-26T05:36:32;34.00;25.00;15.00
86103;PMS3003;76727;51.216;17.394;2024-02-26T05:39:34;38.00;27.33;15.00
86103;PMS3003;76727;51.216;17.394;2024-02-26T05:42:37;36.67;25.00;15.00
86103;PMS3003;76727;51.216;17.394;2024-02-26T05:45:39;32.00;27.00;14.33
86103;PMS3003;76727;51.216;17.394;2024-02-26T05:48:41;32.67;26.33;13.00
86103;PMS3003;76727;51.216;17.394;2024-02-26T05:51:43;22.33;18.00;6.67
86103;PMS3003;76727;51.216;17.394;2024-02-26T05:54:45;38.00;28.00;16.00
86103;PMS3003;76727;51.216;17.394;2024-02-26T05:57:50;25.00;18.50;11.00
86103;PMS3003;76727;51.216;17.394;2024-02-26T06:00:53;29.67;24.00;13.00
86103;PMS3003;76727;51.216;17.394;2024-02-26T06:03:55;28.80;26.40;14.20
86103;PMS3003;76727;51.216;17.394;2024-02-26T06:06:57;30.33;22.00;13.00
86103;PMS3003;76727;51.216;17.394;2024-02-26T06:09:59;33.40;22.40;10.80
86103;PMS3003;76727;51.216;17.394;2024-02-26T06:13:02;28.67;21.00;12.00
86103;PMS3003;76727;51.216;17.394;2024-02-26T06:16:03;30.50;24.00;12.00
86103;PMS3003;76727;51.216;17.394;2024-02-26T06:19:06;38.33;27.33;13.00
86103;PMS3003;76727;51.216;17.394;2024-02-26T06:22:08;31.33;28.00;13.00
86103;PMS3003;76727;51.216;17.394;2024-02-26T06:25:10;31.40;21.20;13.00
86103;PMS3003;76727;51.216;17.394;2024-02-26T06:28:13;25.67;21.33;13.00
86103;PMS3003;76727;51.216;17.394;2024-02-26T06:31:15;40.67;28.67;14.67
86103;PMS3003;76727;51.216;17.394;2024-02-26T06:34:17;30.00;24.67;12.33
86103;PMS3003;76727;51.216;17.394;2024-02-26T06:37:19;24.00;18.33;6.67
86103;PMS3003;76727;51.216;17.394;2024-02-26T06:40:21;39.33;30.33;15.33
86103;PMS3003;76727;51.216;17.394;2024-02-26T06:43:24;38.50;27.50;14.00
86103;PMS3003;76727;51.216;17.394;2024-02-26T06:46:26;37.67;30.00;16.67
86103;PMS3003;76727;51.216;17.394;2024-02-26T06:49:28;34.00;27.00;16.67
86103;PMS3003;76727;51.216;17.394;2024-02-26T06:52:30;23.67;20.33;12.33
86103;PMS3003;76727;51.216;17.394;2024-02-26T06:55:33;30.67;24.33;15.33
86103;PMS3003;76727;51.216;17.394;2024-02-26T06:58:36;37.33;29.67;16.67
86103;PMS3003;76727;51.216;17.394;2024-02-26T07:01:39;31.33;25.33;16.67
86103;PMS3003;76727;51.216;17.394;2024-02-26T07:04:41;15.00;15.00;9.00
86103;PMS3003;76727;51.216;17.394;2024-02-26T07:07:45;18.80;15.80;5.60
86103;PMS3003;76727;51.216;17.394;2024-02-26T07:10:47;24.33;21.00;12.33
86103;PMS3003;76727;51.216;17.394;2024-02-26T07:13:50;30.00;21.67;12.00
86103;PMS3003;76727;51.216;17.394;2024-02-26T07:16:53;29.17;26.00;13.00
86103;PMS3003;76727;51.216;17.394;2024-02-26T07:19:56;33.00;25.00;15.00
86103;PMS3003;76727;51.216;17.394;2024-02-26T07:23:00;28.67;25.00;16.00
86103;PMS3003;76727;51.216;17.394;2024-02-26T07:26:05;21.00;16.00;7.00
86103;PMS3003;76727;51.216;17.394;2024-02-26T07:29:08;34.80;27.80;14.60
86103;PMS3003;76727;51.216;17.394;2024-02-26T07:32:09;39.00;27.50;15.00
86103;PMS3003;76727;51.216;17.394;2024-02-26T07:35:12;36.50;30.00;18.00
86103;PMS3003;76727;51.216;17.394;2024-02-26T07:38:13;37.00;30.50;16.00
86103;PMS3003;76727;51.216;17.394;2024-02-26T07:41:15;45.00;32.00;19.00
86103;PMS3003;76727;51.216;17.394;2024-02-26T07:44:18;39.33;30.33;18.00
86103;PMS3003;76727;51.216;17.394;2024-02-26T07:47:20;38.67;22.67;15.67
86103;PMS3003;76727;51.216;17.394;2024-02-26T07:50:22;21.67;18.33;13.33
86103;PMS3003;76727;51.216;17.394;2024-02-26T07:53:24;19.00;13.67;5.67
86103;PMS3003;76727;51.216;17.394;2024-02-26T07:56:26;31.67;22.33;15.67
86103;PMS3003;76727;51.216;17.394;2024-02-26T07:59:29;23.67;19.33;11.67
86103;PMS3003;76727;51.216;17.394;2024-02-26T08:02:31;18.33;18.00;13.00
86103;PMS3003;76727;51.216;17.394;2024-02-26T08:05:33;35.50;30.00;14.00
86103;PMS3003;76727;51.216;17.394;2024-02-26T08:08:35;18.00;16.00;7.00
86103;PMS3003;76727;51.216;17.394;2024-02-26T08:11:37;15.00;15.00;10.00
86103;PMS3003;76727;51.216;17.394;2024-02-26T08:14:39;26.00;21.00;12.00
86103;PMS3003;76727;51.216;17.394;2024-02-26T08:17:42;19.40;17.60;14.20
86103;PMS3003;76727;51.216;17.394;2024-02-26T08:20:44;33.00;22.00;14.67
86103;PMS3003;76727;51.216;17.394;2024-02-26T08:23:45;31.50;25.00;14.00
86103;PMS3003;76727;51.216;17.394;2024-02-26T08:26:49;27.67;20.33;16.00
86103;PMS3003;76727;51.216;17.394;2024-02-26T08:29:53;18.00;18.00;11.00
86103;PMS3003;76727;51.216;17.394;2024-02-26T08:32:55;34.33;23.00;14.00
86103;PMS3003;76727;51.216;17.394;2024-02-26T08:35:57;26.33;19.67;12.67
86103;PMS3003;76727;51.216;17.394;2024-02-26T08:38:58;24.00;20.00;14.50
86103;PMS3003;76727;51.216;17.394;2024-02-26T08:42:00;23.67;18.67;12.67
86103;PMS3003;76727;51.216;17.394;2024-02-26T08:45:04;22.00;17.00;12.33
86103;PMS3003;76727;51.216;17.394;2024-02-26T08:48:05;22.00;20.50;13.00
86103;PMS3003;76727;51.216;17.394;2024-02-26T08:51:08;24.67;17.00;11.33
86103;PMS3003;76727;51.216;17.394;2024-02-26T08:54:11;25.00;17.00;10.00
86103;PMS3003;76727;51.216;17.394;2024-02-26T08:57:13;18.33;15.67;10.00
86103;PMS3003;76727;51.216;17.394;2024-02-26T09:00:16;16.67;14.00;9.00
86103;PMS3003;76727;51.216;17.394;2024-02-26T09:03:18;17.50;14.00;10.00
86103;PMS3003;76727;51.216;17.394;2024-02-26T09:06:20;20.80;18.00;11.60
86103;PMS3003;76727;51.216;17.394;2024-02-26T09:09:22;15.67;13.00;7.67
86103;PMS3003;76727;51.216;17.394;2024-02-26T09:12:23;12.50;10.00;5.50
86103;PMS3003;76727;51.216;17.394;2024-02-26T09:15:27;11.20;7.00;5.20
86103;PMS3003;76727;51.216;17.394;2024-02-26T09:18:28;13.00;10.50;9.00
86103;PMS3003;76727;51.216;17.394;2024-02-26T09:21:29;10.00;10.00;6.50
86103;PMS3003;76727;51.216;17.394;2024-02-26T09:24:30;9.00;7.00;5.00
86103;PMS3003;76727;51.216;17.394;2024-02-26T09:27:31;9.00;9.00;5.00
86103;PMS3003;76727;51.216;17.394;2024-02-26T09:30:33;8.00;6.50;5.00
86103;PMS3003;76727;51.216;17.394;2024-02-26T09:33:34;12.00;8.00;5.00
86103;PMS3003;76727;51.216;17.394;2024-02-26T09:36:36;13.00;7.00;6.00
86103;PMS3003;76727;51.216;17.394;2024-02-26T09:39:37;8.50;8.50;6.00
86103;PMS3003;76727;51.216;17.394;2024-02-26T09:42:38;6.00;6.00;4.50
86103;PMS3003;76727;51.216;17.394;2024-02-26T09:45:47;9.40;4.80;4.00
86103;PMS3003;76727;51.216;17.394;2024-02-26T09:48:50;10.00;6.00;4.50
86103;PMS3003;76727;51.216;17.394;2024-02-26T09:51:51;8.00;6.00;2.00
86103;PMS3003;76727;51.216;17.394;2024-02-26T09:54:54;6.00;6.00;4.00
86103;PMS3003;76727;51.216;17.394;2024-02-26T09:57:55;5.50;5.00;4.00
86103;PMS3003;76727;51.216;17.394;2024-02-26T10:00:59;14.00;9.00;5.00
86103;PMS3003;76727;51.216;17.394;2024-02-26T10:04:03;4.25;3.00;3.00
86103;PMS3003;76727;51.216;17.394;2024-02-26T10:07:09;4.00;4.00;2.00
86103;PMS3003;76727;51.216;17.394;2024-02-26T10:10:11;6.00;3.00;2.00
86103;PMS3003;76727;51.216;17.394;2024-02-26T10:13:14;2.50;2.00;1.25
86103;PMS3003;76727;51.216;17.394;2024-02-26T10:16:18;3.00;3.00;2.00
86103;PMS3003;76727;51.216;17.394;2024-02-26T10:19:26;4.00;3.50;1.00
86103;PMS3003;76727;51.216;17.394;2024-02-26T10:22:29;8.25;7.00;4.25
86103;PMS3003;76727;51.216;17.394;2024-02-26T10:25:30;9.00;8.00;5.00
86103;PMS3003;76727;51.216;17.394;2024-02-26T10:28:32;5.00;5.00;4.00
86103;PMS3003;76727;51.216;17.394;2024-02-26T10:31:35;1.67;1.00;0.00
86103;PMS3003;76727;51.216;17.394;2024-02-26T10:34:37;4.75;4.75;2.00
86103;PMS3003;76727;51.216;17.394;2024-02-26T10:37:39;5.00;5.00;2.00
86103;PMS3003;76727;51.216;17.394;2024-02-26T10:40:42;4.00;4.00;1.00
86103;PMS3003;76727;51.216;17.394;2024-02-26T10:43:43;4.00;3.00;2.00
86103;PMS3003;76727;51.216;17.394;2024-02-26T10:46:47;1.00;1.00;0.00
86103;PMS3003;76727;51.216;17.394;2024-02-26T10:49:49;4.50;4.25;2.00
86103;PMS3003;76727;51.216;17.394;2024-02-26T10:52:52;6.50;4.00;3.50
86103;PMS3003;76727;51.216;17.394;2024-02-26T10:55:57;5.50;5.00;2.00
86103;PMS3003;76727;51.216;17.394;2024-02-26T10:59:01;1.00;1.00;0.50
86103;PMS3003;76727;51.216;17.394;2024-02-26T11:02:04;4.00;4.00;2.00
86103;PMS3003;76727;51.216;17.394;2024-02-26T11:05:08;8.00;6.00;2.00
86103;PMS3003;76727;51.216;17.394;2024-02-26T11:08:11;3.00;2.00;2.00
86103;PMS3003;76727;51.216;17.394;2024-02-26T11:11:12;7.50;7.00;4.00
86103;PMS3003;76727;51.216;17.394;2024-02-26T11:14:13;4.00;4.00;2.00
86103;PMS3003;76727;51.216;17.394;2024-02-26T11:17:16;8.00;7.00;5.00
86103;PMS3003;76727;51.216;17.394;2024-02-26T11:20:21;7.75;7.75;4.75
86103;PMS3003;76727;51.216;17.394;2024-02-26T11:23:26;10.40;7.80;4.00
86103;PMS3003;76727;51.216;17.394;2024-02-26T11:26:27;6.50;3.50;2.50
86103;PMS3003;76727;51.216;17.394;2024-02-26T11:29:29;9.00;8.00;5.00
86103;PMS3003;76727;51.216;17.394;2024-02-26T11:32:36;7.00;6.50;2.00
86103;PMS3003;76727;51.216;17.394;2024-02-26T11:35:38;7.00;4.75;4.00
86103;PMS3003;76727;51.216;17.394;2024-02-26T11:38:40;4.50;4.50;2.00
86103;PMS3003;76727;51.216;17.394;2024-02-26T11:41:43;1.75;1.75;0.00
86103;PMS3003;76727;51.216;17.394;2024-02-26T11:44:44;4.25;4.25;2.00
86103;PMS3003;76727;51.216;17.394;2024-02-26T11:47:48;4.00;3.00;1.00
86103;PMS3003;76727;51.216;17.394;2024-02-26T11:50:56;4.50;4.00;2.00
86103;PMS3003;76727;51.216;17.394;2024-02-26T11:53:58;4.00;4.00;2.00
86103;PMS3003;76727;51.216;17.394;2024-02-26T11:56:59;10.00;4.50;4.00
86103;PMS3003;76727;51.216;17.394;2024-02-26T12:00:12;6.00;4.00;2.00
86103;PMS3003;76727;51.216;17.394;2024-02-26T12:03:16;5.25;2.50;2.00
86103;PMS3003;76727;51.216;17.394;2024-02-26T12:06:18;4.75;4.75;4.00
86103;PMS3003;76727;51.216;17.394;2024-02-26T12:09:31;8.00;5.00;4.00
86103;PMS3003;76727;51.216;17.394;2024-02-26T12:12:37;4.75;4.00;1.75
86103;PMS3003;76727;51.216;17.394;2024-02-26T12:15:39;6.50;5.00;4.00
86103;PMS3003;76727;51.216;17.394;2024-02-26T12:18:45;7.50;5.00;2.00
86103;PMS3003;76727;51.216;17.394;2024-02-26T12:21:50;9.25;5.50;4.00
86103;PMS3003;76727;51.216;17.394;2024-02-26T12:24:58;4.75;4.75;2.00
86103;PMS3003;76727;51.216;17.394;2024-02-26T12:28:00;4.25;2.00;0.50
86103;PMS3003;76727;51.216;17.394;2024-02-26T12:31:02;5.00;4.00;1.00
86103;PMS3003;76727;51.216;17.394;2024-02-26T12:34:06;6.00;6.00;4.00
86103;PMS3003;76727;51.216;17.394;2024-02-26T12:37:09;6.75;2.00;1.25
86103;PMS3003;76727;51.216;17.394;2024-02-26T12:40:11;8.00;4.50;2.00
86103;PMS3003;76727;51.216;17.394;2024-02-26T12:43:13;4.25;1.75;1.00
86103;PMS3003;76727;51.216;17.394;2024-02-26T12:46:14;2.00;2.00;2.00
86103;PMS3003;76727;51.216;17.394;2024-02-26T12:49:17;3.00;2.00;1.00
86103;PMS3003;76727;51.216;17.394;2024-02-26T12:52:19;4.00;4.00;2.00
86103;PMS3003;76727;51.216;17.394;2024-02-26T12:55:21;6.50;5.00;3.00
86103;PMS3003;76727;51.216;17.394;2024-02-26T12:58:23;4.50;4.50;3.00
86103;PMS3003;76727;51.216;17.394;2024-02-26T13:01:25;7.00;5.00;2.00
86103;PMS3003;76727;51.216;17.394;2024-02-26T13:04:29;2.00;2.00;2.00
86103;PMS3003;76727;51.216;17.394;2024-02-26T13:07:31;8.00;4.00;2.00
86103;PMS3003;76727;51.216;17.394;2024-02-26T13:10:33;11.25;6.75;3.00
86103;PMS3003;76727;51.216;17.394;2024-02-26T13:13:35;8.00;7.00;4.00
86103;PMS3003;76727;51.216;17.394;2024-02-26T13:16:36;11.00;6.00;3.00
86103;PMS3003;76727;51.216;17.394;2024-02-26T13:19:49;2.00;2.00;1.00
86103;PMS3003;76727;51.216;17.394;2024-02-26T13:22:51;4.75;3.00;1.00
86103;PMS3003;76727;51.216;17.394;2024-02-26T13:25:55;0.00;0.00;0.00
86103;PMS3003;76727;51.216;17.394;2024-02-26T13:29:00;2.00;2.00;1.00
86103;PMS3003;76727;51.216;17.394;2024-02-26T13:32:03;1.00;1.00;0.00
86103;PMS3003;76727;51.216;17.394;2024-02-26T13:35:06;5.00;4.00;1.00
86103;PMS3003;76727;51.216;17.394;2024-02-26T13:38:10;13.20;9.80;5.20
86103;PMS3003;76727;51.216;17.394;2024-02-26T13:41:12;3.50;3.50;1.00
86103;PMS3003;76727;51.216;17.394;2024-02-26T13:44:14;2.00;2.00;1.00
86103;PMS3003;76727;51.216;17.394;2024-02-26T13:47:15;2.75;2.50;2.00
86103;PMS3003;76727;51.216;17.394;2024-02-26T13:50:19;5.50;3.00;2.00
86103;PMS3003;76727;51.216;17.394;2024-02-26T13:53:21;5.00;5.00;3.50
86103;PMS3003;76727;51.216;17.394;2024-02-26T13:56:23;4.75;2.50;1.75
86103;PMS3003;76727;51.216;17.394;2024-02-26T13:59:24;6.50;4.75;2.00
86103;PMS3003;76727;51.216;17.394;2024-02-26T14:02:25;8.00;5.50;2.00
86103;PMS3003;76727;51.216;17.394;2024-02-26T14:05:29;4.00;3.00;2.00
86103;PMS3003;76727;51.216;17.394;2024-02-26T14:08:30;7.50;7.00;4.00
86103;PMS3003;76727;51.216;17.394;2024-02-26T14:11:31;5.75;5.00;4.00
86103;PMS3003;76727;51.216;17.394;2024-02-26T14:14:34;3.25;2.00;1.00
86103;PMS3003;76727;51.216;17.394;2024-02-26T14:17:36;12.60;10.20;5.00
86103;PMS3003;76727;51.216;17.394;2024-02-26T14:20:39;8.00;8.00;5.00
86103;PMS3003;76727;51.216;17.394;2024-02-26T14:23:39;8.50;8.00;5.00
86103;PMS3003;76727;51.216;17.394;2024-02-26T14:26:41;6.50;4.50;3.00
86103;PMS3003;76727;51.216;17.394;2024-02-26T14:29:42;11.00;6.50;2.00
86103;PMS3003;76727;51.216;17.394;2024-02-26T14:32:44;3.00;3.00;2.00
86103;PMS3003;76727;51.216;17.394;2024-02-26T14:35:47;7.00;5.00;1.00
86103;PMS3003;76727;51.216;17.394;2024-02-26T14:38:49;8.50;5.00;2.00
86103;PMS3003;76727;51.216;17.394;2024-02-26T14:41:52;7.50;2.00;0.00
86103;PMS3003;76727;51.216;17.394;2024-02-26T14:44:54;8.75;4.50;3.00
86103;PMS3003;76727;51.216;17.394;2024-02-26T14:47:55;14.00;5.00;4.00
86103;PMS3003;76727;51.216;17.394;2024-02-26T14:50:59;4.50;4.25;2.00
86103;PMS3003;76727;51.216;17.394;2024-02-26T14:54:01;2.00;2.00;1.75
86103;PMS3003;76727;51.216;17.394;2024-02-26T14:57:02;7.50;5.50;4.00
86103;PMS3003;76727;51.216;17.394;2024-02-26T15:00:03;8.00;8.00;5.00
86103;PMS3003;76727;51.216;17.394;2024-02-26T15:03:05;11.50;9.00;5.00
86103;PMS3003;76727;51.216;17.394;2024-02-26T15:06:07;11.00;9.00;5.00
86103;PMS3003;76727;51.216;17.394;2024-02-26T15:09:09;7.50;7.50;4.00
86103;PMS3003;76727;51.216;17.394;2024-02-26T15:12:10;6.00;6.00;4.00
86103;PMS3003;76727;51.216;17.394;2024-02-26T15:15:12;2.50;2.00;0.00
86103;PMS3003;76727;51.216;17.394;2024-02-26T15:18:14;5.00;4.00;2.00
86103;PMS3003;76727;51.216;17.394;2024-02-26T15:21:17;9.75;4.00;2.00
86103;PMS3003;76727;51.216;17.394;2024-02-26T15:24:18;3.00;1.50;1.50
86103;PMS3003;76727;51.216;17.394;2024-02-26T15:27:20;6.50;5.00;2.00
86103;PMS3003;76727;51.216;17.394;2024-02-26T15:30:22;4.00;4.00;2.00
86103;PMS3003;76727;51.216;17.394;2024-02-26T15:33:25;9.00;7.17;5.33
86103;PMS3003;76727;51.216;17.394;2024-02-26T15:36:29;5.50;5.50;5.00
86103;PMS3003;76727;51.216;17.394;2024-02-26T15:39:30;10.00;7.00;5.00
86103;PMS3003;76727;51.216;17.394;2024-02-26T15:42:31;9.00;8.50;7.00
86103;PMS3003;76727;51.216;17.394;2024-02-26T15:45:33;6.00;6.00;4.50
86103;PMS3003;76727;51.216;17.394;2024-02-26T15:48:35;10.50;7.25;4.75
86103;PMS3003;76727;51.216;17.394;2024-02-26T15:51:39;14.00;5.00;4.00
86103;PMS3003;76727;51.216;17.394;2024-02-26T15:54:40;11.00;9.50;7.00
86103;PMS3003;76727;51.216;17.394;2024-02-26T15:57:41;10.00;10.00;7.00
86103;PMS3003;76727;51.216;17.394;2024-02-26T16:00:43;2.00;2.00;1.00
86103;PMS3003;76727;51.216;17.394;2024-02-26T16:03:45;11.00;10.50;7.00
86103;PMS3003;76727;51.216;17.394;2024-02-26T16:06:48;17.00;8.00;5.00
86103;PMS3003;76727;51.216;17.394;2024-02-26T16:09:52;12.00;10.50;5.00
86103;PMS3003;76727;51.216;17.394;2024-02-26T16:12:53;11.00;8.00;5.00
86103;PMS3003;76727;51.216;17.394;2024-02-26T16:15:58;14.00;8.00;5.00
86103;PMS3003;76727;51.216;17.394;2024-02-26T16:19:05;10.00;7.50;5.00
86103;PMS3003;76727;51.216;17.394;2024-02-26T16:22:10;10.00;9.00;7.00
86103;PMS3003;76727;51.216;17.394;2024-02-26T16:25:11;8.00;8.00;4.50
86103;PMS3003;76727;51.216;17.394;2024-02-26T16:28:13;11.75;10.00;6.00
86103;PMS3003;76727;51.216;17.394;2024-02-26T16:31:14;17.00;13.00;8.00
86103;PMS3003;76727;51.216;17.394;2024-02-26T16:34:16;14.33;14.00;10.33
86103;PMS3003;76727;51.216;17.394;2024-02-26T16:37:19;21.00;15.67;10.00
86103;PMS3003;76727;51.216;17.394;2024-02-26T16:40:21;15.67;15.00;8.67
86103;PMS3003;76727;51.216;17.394;2024-02-26T16:43:23;19.33;15.67;11.00
86103;PMS3003;76727;51.216;17.394;2024-02-26T16:46:25;15.50;11.50;9.00
86103;PMS3003;76727;51.216;17.394;2024-02-26T16:49:25;18.00;13.00;9.00
86103;PMS3003;76727;51.216;17.394;2024-02-26T16:52:29;19.67;14.67;10.67
86103;PMS3003;76727;51.216;17.394;2024-02-26T16:55:31;15.33;14.67;7.67
86103;PMS3003;76727;51.216;17.394;2024-02-26T16:58:34;14.80;13.20;7.60
86103;PMS3003;76727;51.216;17.394;2024-02-26T17:01:36;22.33;17.00;10.00
86103;PMS3003;76727;51.216;17.394;2024-02-26T17:04:38;58.33;43.67;23.67
86103;PMS3003;76727;51.216;17.394;2024-02-26T17:07:40;31.00;20.00;14.00
86103;PMS3003;76727;51.216;17.394;2024-02-26T17:10:45;27.33;20.67;13.67
86103;PMS3003;76727;51.216;17.394;2024-02-26T17:13:47;25.33;25.33;14.00
86103;PMS3003;76727;51.216;17.394;2024-02-26T17:16:51;13.80;12.00;8.00
86103;PMS3003;76727;51.216;17.394;2024-02-26T17:19:52;10.00;8.00;3.00
86103;PMS3003;76727;51.216;17.394;2024-02-26T17:22:55;33.33;23.00;13.33
86103;PMS3003;76727;51.216;17.394;2024-02-26T17:25:57;19.00;19.00;10.67
86103;PMS3003;76727;51.216;17.394;2024-02-26T17:28:59;26.50;21.00;16.00
86103;PMS3003;76727;51.216;17.394;2024-02-26T17:32:05;25.67;20.00;13.00
86103;PMS3003;76727;51.216;17.394;2024-02-26T17:35:11;16.50;9.00;4.00
86103;PMS3003;76727;51.216;17.394;2024-02-26T17:38:15;21.33;18.33;13.00
86103;PMS3003;76727;51.216;17.394;2024-02-26T17:41:17;28.00;21.67;13.00
86103;PMS3003;76727;51.216;17.394;2024-02-26T17:44:19;39.67;24.33;13.67
86103;PMS3003;76727;51.216;17.394;2024-02-26T17:47:21;23.33;19.00;13.00
86103;PMS3003;76727;51.216;17.394;2024-02-26T17:50:24;27.00;22.67;13.67
86103;PMS3003;76727;51.216;17.394;2024-02-26T17:53:27;30.33;22.00;14.00
86103;PMS3003;76727;51.216;17.394;2024-02-26T17:56:29;23.00;20.00;16.00
86103;PMS3003;76727;51.216;17.394;2024-02-26T17:59:31;37.00;28.50;16.00
86103;PMS3003;76727;51.216;17.394;2024-02-26T18:02:35;28.83;21.67;12.50
86103;PMS3003;76727;51.216;17.394;2024-02-26T18:05:39;27.00;22.00;14.00
86103;PMS3003;76727;51.216;17.394;2024-02-26T18:08:50;25.00;22.67;13.67
86103;PMS3003;76727;51.216;17.394;2024-02-26T18:11:53;21.00;20.00;13.00
86103;PMS3003;76727;51.216;17.394;2024-02-26T18:15:04;26.33;19.67;8.00
86103;PMS3003;76727;51.216;17.394;2024-02-26T18:18:25;28.67;24.33;16.00
86103;PMS3003;76727;51.216;17.394;2024-02-26T18:21:44;38.67;26.00;14.00
86103;PMS3003;76727;51.216;17.394;2024-02-26T18:24:47;29.50;23.50;16.50
86103;PMS3003;76727;51.216;17.394;2024-02-26T18:27:48;35.00;30.00;16.00
86103;PMS3003;76727;51.216;17.394;2024-02-26T18:30:49;19.00;18.00;10.00
86103;PMS3003;76727;51.216;17.394;2024-02-26T18:33:51;32.00;21.67;15.00
86103;PMS3003;76727;51.216;17.394;2024-02-26T18:36:52;35.00;28.50;19.00
86103;PMS3003;76727;51.216;17.394;2024-02-26T18:39:56;21.33;19.33;12.33
86103;PMS3003;76727;51.216;17.394;2024-02-26T18:42:58;31.00;23.33;14.00
86103;PMS3003;76727;51.216;17.394;2024-02-26T18:46:00;28.33;19.00;14.67
86103;PMS3003;76727;51.216;17.394;2024-02-26T18:49:03;30.33;20.00;11.00
86103;PMS3003;76727;51.216;17.394;2024-02-26T18:52:06;19.50;16.67;9.83
86103;PMS3003;76727;51.216;17.394;2024-02-26T18:55:11;20.33;18.67;15.00
86103;PMS3003;76727;51.216;17.394;2024-02-26T18:58:15;19.17;16.00;10.50
86103;PMS3003;76727;51.216;17.394;2024-02-26T19:01:17;25.67;15.33;10.67
86103;PMS3003;76727;51.216;17.394;2024-02-26T19:04:18;31.00;26.00;16.00
86103;PMS3003;76727;51.216;17.394;2024-02-26T19:07:20;30.67;25.00;16.33
86103;PMS3003;76727;51.216;17.394;2024-02-26T19:10:23;25.00;22.00;13.00
86103;PMS3003;76727;51.216;17.394;2024-02-26T19:13:25;16.67;16.33;8.00
86103;PMS3003;76727;51.216;17.394;2024-02-26T19:16:26;32.00;28.00;20.00
86103;PMS3003;76727;51.216;17.394;2024-02-26T19:19:27;34.00;25.00;16.00